createdAt,value
2016-02-22T00:01:40.179Z,8.7
2016-02-22T00:04:53.171Z,8.7
2016-02-22T00:08:06.231Z,8.7
2016-02-22T00:11:17.115Z,8.7
2016-02-22T00:14:27.858Z,8.7
2016-02-22T00:17:43.949Z,8.7
2016-02-22T00:20:47.472Z,8.7
2016-02-22T00:23:58.387Z,8.7
2016-02-22T00:27:09.241Z,8.7
2016-02-22T00:30:19.952Z,8.7
2016-02-22T00:33:38.289Z,8.7
2016-02-22T00:36:39.547Z,8.7
2016-02-22T00:39:55.055Z,8.7
2016-02-22T00:43:05.737Z,8.7
2016-02-22T00:46:19.119Z,8.7
2016-02-22T00:49:37.300Z,8.7
2016-02-22T00:52:40.918Z,8.7
2016-02-22T00:55:53.863Z,8.7
2016-02-22T00:59:07.186Z,8.7
2016-02-22T01:02:20.537Z,8.7
2016-02-22T01:05:36.390Z,8.7
2016-02-22T01:08:39.758Z,8.7
2016-02-22T01:11:52.312Z,8.7
2016-02-22T01:15:05.620Z,8.7
2016-02-22T01:18:18.988Z,8.6
2016-02-22T01:21:36.964Z,8.6
2016-02-22T01:24:40.441Z,8.7
2016-02-22T01:27:50.699Z,8.6
2016-02-22T01:31:00.723Z,8.6
2016-02-22T01:34:13.687Z,8.6
2016-02-22T01:37:26.539Z,8.6
2016-02-22T01:40:39.953Z,8.6
2016-02-22T01:43:53.211Z,8.6
2016-02-22T01:47:03.375Z,8.6
2016-02-22T01:50:16.636Z,8.6
2016-02-22T01:53:34.957Z,8.5
2016-02-22T01:56:42.387Z,8.5
2016-02-22T01:59:46.973Z,8.5
2016-02-22T02:03:00.028Z,8.5
2016-02-22T02:06:10.070Z,8.5
2016-02-22T02:09:23.187Z,8.5
2016-02-22T02:12:41.430Z,8.5
2016-02-22T02:15:44.750Z,8.5
2016-02-22T02:18:58.071Z,8.4
2016-02-22T02:22:10.894Z,8.4
2016-02-22T02:25:23.996Z,8.4
2016-02-22T02:28:42.598Z,8.4
2016-02-22T02:31:45.996Z,8.4
2016-02-22T02:34:59.067Z,8.4
2016-02-22T02:38:11.296Z,8.4
2016-02-22T02:41:23.726Z,8.3
2016-02-22T02:44:38.844Z,8.3
2016-02-22T02:47:42.195Z,-17.8
2016-02-22T02:50:54.391Z,-17.8
2016-02-22T02:54:14.588Z,-17.8
2016-02-22T02:57:42.379Z,-17.8
2016-02-22T03:00:54.934Z,-17.8
2016-02-22T03:04:14.820Z,8.3
2016-02-22T03:07:28.031Z,8.3
2016-02-22T03:10:41.101Z,8.3
2016-02-22T03:13:54.609Z,8.2
2016-02-22T03:17:07.807Z,8.2
2016-02-22T03:20:18.097Z,8.2
2016-02-22T03:23:29.074Z,8.2
2016-02-22T03:26:42.144Z,8.2
2016-02-22T03:29:55.168Z,8.2
2016-02-22T03:33:06.788Z,8.2
2016-02-22T03:36:16.765Z,8.2
2016-02-22T03:39:27.335Z,8.2
2016-02-22T03:42:40.515Z,8.2
2016-02-22T03:45:53.633Z,8.1
2016-02-22T03:49:04.688Z,8
2016-02-22T03:52:17.730Z,8
2016-02-22T03:55:28.660Z,7.9
2016-02-22T03:58:41.621Z,7.9
2016-02-22T04:01:52.223Z,7.9
2016-02-22T04:05:03.090Z,7.8
2016-02-22T04:08:18.617Z,7.9
2016-02-22T04:11:36.750Z,7.9
2016-02-22T04:14:40.133Z,7.8
2016-02-22T04:17:49.750Z,7.8
2016-02-22T04:21:03.102Z,7.8
2016-02-22T04:24:16.347Z,7.9
2016-02-22T04:27:27.902Z,7.9
2016-02-22T04:30:41.160Z,7.9
2016-02-22T04:33:54.480Z,7.9
2016-02-22T04:37:07.723Z,7.9
2016-02-22T04:40:19.015Z,7.9
2016-02-22T04:43:36.601Z,7.9
2016-02-22T04:46:40.047Z,8
2016-02-22T04:49:53.228Z,8
2016-02-22T04:53:06.406Z,8
2016-02-22T04:56:16.871Z,8
2016-02-22T04:59:29.066Z,8
2016-02-22T05:02:41.949Z,8
2016-02-22T05:05:51.850Z,8
2016-02-22T05:09:04.779Z,7.9
2016-02-22T05:12:17.900Z,7.9
2016-02-22T05:15:35.752Z,7.9
2016-02-22T05:18:39.260Z,7.9
2016-02-22T05:21:49.003Z,7.9
2016-02-22T05:25:02.011Z,7.8
2016-02-22T05:28:15.163Z,7.8
2016-02-22T05:31:28.232Z,7.8
2016-02-22T05:34:41.490Z,7.8
2016-02-22T05:37:52.482Z,7.7
2016-02-22T05:41:05.553Z,7.7
2016-02-22T05:44:15.580Z,7.7
2016-02-22T05:47:28.088Z,7.7
2016-02-22T05:50:41.267Z,7.7
2016-02-22T05:53:54.666Z,7.7
2016-02-22T05:57:07.863Z,7.7
2016-02-22T06:00:20.951Z,7.7
2016-02-22T06:03:35.569Z,7.6
2016-02-22T06:06:43.968Z,7.6
2016-02-22T06:09:47.283Z,7.7
2016-02-22T06:13:00.238Z,7.6
2016-02-22T06:16:13.420Z,7.6
2016-02-22T06:19:24.540Z,7.6
2016-02-22T06:22:42.715Z,7.6
2016-02-22T06:25:46.095Z,7.6
2016-02-22T06:28:56.429Z,7.6
2016-02-22T06:32:06.170Z,7.6
2016-02-22T06:35:17.163Z,7.6
2016-02-22T06:38:35.140Z,7.4
2016-02-22T06:41:43.399Z,7.2
2016-02-22T06:44:46.626Z,7
2016-02-22T06:47:59.634Z,7
2016-02-22T06:51:12.644Z,6.9
2016-02-22T06:54:23.355Z,6.8
2016-02-22T06:57:41.332Z,6.8
2016-02-22T07:00:44.638Z,6.7
2016-02-22T07:03:55.224Z,6.7
2016-02-22T07:07:05.982Z,6.7
2016-02-22T07:10:19.101Z,6.7
2016-02-22T07:13:29.140Z,6.7
2016-02-22T07:16:39.634Z,6.7
2016-02-22T07:19:52.657Z,6.6
2016-02-22T07:23:05.821Z,6.7
2016-02-22T07:26:19.098Z,6.7
2016-02-22T07:29:35.230Z,6.6
2016-02-22T07:32:43.379Z,6.6
2016-02-22T07:35:46.544Z,6.5
2016-02-22T07:38:58.037Z,6.5
2016-02-22T07:42:08.482Z,6.5
2016-02-22T07:45:21.681Z,6.5
2016-02-22T07:48:39.532Z,6.5
2016-02-22T07:51:42.868Z,6.5
2016-02-22T07:54:56.033Z,6.5
2016-02-22T07:58:08.900Z,6.6
2016-02-22T08:01:19.317Z,6.6
2016-02-22T08:04:37.449Z,6.6
2016-02-22T08:07:41.098Z,6.5
2016-02-22T08:10:53.529Z,6.4
2016-02-22T08:14:06.521Z,6.3
2016-02-22T08:17:19.360Z,6.1
2016-02-22T08:20:34.696Z,6
2016-02-22T08:23:42.892Z,5.9
2016-02-22T08:26:46.025Z,5.9
2016-02-22T08:29:55.799Z,5.8
2016-02-22T08:33:06.010Z,5.7
2016-02-22T08:36:18.896Z,5.6
2016-02-22T08:39:36.919Z,5.5
2016-02-22T08:42:39.943Z,5.5
2016-02-22T08:45:51.701Z,5.5
2016-02-22T08:49:02.021Z,5.4
2016-02-22T08:52:12.499Z,5.4
2016-02-22T08:55:25.602Z,5.5
2016-02-22T08:58:43.564Z,5.4
2016-02-22T09:01:46.806Z,5.4
2016-02-22T09:04:59.705Z,5.4
2016-02-22T09:08:16.810Z,5.4
2016-02-22T09:11:25.833Z,5.4
2016-02-22T09:14:43.810Z,5.4
2016-02-22T09:17:47.037Z,5.4
2016-02-22T09:21:00.014Z,5.3
2016-02-22T09:24:13.131Z,5.3
2016-02-22T09:27:25.923Z,5.3
2016-02-22T09:30:43.884Z,5.2
2016-02-22T09:33:47.033Z,5.2
2016-02-22T09:36:59.963Z,5.2
2016-02-22T09:40:11.283Z,5.2
2016-02-22T09:43:24.763Z,5.1
2016-02-22T09:46:42.834Z,5.1
2016-02-22T09:49:46.029Z,5.1
2016-02-22T09:52:58.710Z,5.1
2016-02-22T09:56:09.920Z,5.1
2016-02-22T09:59:22.916Z,5.1
2016-02-22T10:02:37.877Z,5.2
2016-02-22T10:05:39.119Z,5.3
2016-02-22T10:08:54.377Z,5.3
2016-02-22T10:12:07.557Z,5.3
2016-02-22T10:15:20.662Z,5.4
2016-02-22T10:18:35.654Z,5.4
2016-02-22T10:21:43.787Z,5.3
2016-02-22T10:24:46.904Z,5.2
2016-02-22T10:27:58.037Z,5.1
2016-02-22T10:31:11.311Z,5.1
2016-02-22T10:34:24.306Z,5
2016-02-22T10:37:42.330Z,5
2016-02-22T10:40:45.510Z,4.8
2016-02-22T10:43:57.940Z,4.8
2016-02-22T10:47:08.229Z,4.9
2016-02-22T10:50:18.646Z,4.9
2016-02-22T10:53:28.795Z,4.8
2016-02-22T10:56:43.803Z,4.8
2016-02-22T10:59:46.984Z,4.7
2016-02-22T11:02:59.881Z,4.6
2016-02-22T11:06:09.719Z,4.6
2016-02-22T11:09:22.697Z,4.5
2016-02-22T11:12:38.502Z,4.6
2016-02-22T11:15:41.745Z,4.6
2016-02-22T11:18:54.285Z,4.7
2016-02-22T11:22:07.448Z,4.8
2016-02-22T11:25:18.818Z,4.8
2016-02-22T11:28:28.936Z,4.8
2016-02-22T11:31:41.632Z,4.9
2016-02-22T11:34:52.421Z,4.9
2016-02-22T11:38:05.350Z,4.8
2016-02-22T11:41:15.625Z,4.8
2016-02-22T11:44:35.730Z,4.9
2016-02-22T11:47:43.815Z,5
2016-02-22T11:50:47.058Z,5.1
2016-02-22T11:54:00.035Z,5.2
2016-02-22T11:57:10.292Z,5.1
2016-02-22T12:00:22.178Z,5.2
2016-02-22T12:03:36.342Z,5.1
2016-02-22T12:06:44.570Z,5.1
2016-02-22T12:09:47.843Z,5.1
2016-02-22T12:12:58.649Z,5
2016-02-22T12:16:11.328Z,4.9
2016-02-22T12:19:24.246Z,4.8
2016-02-22T12:22:42.065Z,4.7
2016-02-22T12:25:45.121Z,4.7
2016-02-22T12:28:56.613Z,4.8
2016-02-22T12:32:09.652Z,4.9
2016-02-22T12:35:20.288Z,4.8
2016-02-22T12:38:35.187Z,4.8
2016-02-22T12:41:43.195Z,4.7
2016-02-22T12:44:46.234Z,4.8
2016-02-22T12:47:59.586Z,4.7
2016-02-22T12:51:10.235Z,4.7
2016-02-22T12:54:19.501Z,4.7
2016-02-22T12:57:34.993Z,4.7
2016-02-22T13:00:42.953Z,4.7
2016-02-22T13:03:46.150Z,4.7
2016-02-22T13:06:58.673Z,4.7
2016-02-22T13:10:11.400Z,4.6
2016-02-22T13:13:24.393Z,4.5
2016-02-22T13:16:39.841Z,4.4
2016-02-22T13:19:43.021Z,4.4
2016-02-22T13:22:53.451Z,4.4
2016-02-22T13:26:03.724Z,4.4
2016-02-22T13:29:18.154Z,4.4
2016-02-22T13:32:27.663Z,4.4
2016-02-22T13:35:40.158Z,4.4
2016-02-22T13:38:51.103Z,4.4
2016-02-22T13:42:06.283Z,4.4
2016-02-22T13:45:19.150Z,4.4
2016-02-22T13:48:36.366Z,4.4
2016-02-22T13:51:44.310Z,4.4
2016-02-22T13:54:47.457Z,4.4
2016-02-22T13:58:00.098Z,4.3
2016-02-22T14:01:13.012Z,4.2
2016-02-22T14:04:25.380Z,4.2
2016-02-22T14:07:41.171Z,4
2016-02-22T14:10:44.259Z,4
2016-02-22T14:13:56.204Z,3.9
2016-02-22T14:17:09.056Z,3.9
2016-02-22T14:20:19.735Z,3.8
2016-02-22T14:23:35.041Z,3.8
2016-02-22T14:26:43.052Z,3.7
2016-02-22T14:29:46.169Z,3.7
2016-02-22T14:32:59.083Z,3.7
2016-02-22T14:36:07.096Z,3.7
2016-02-22T14:39:22.042Z,3.7
2016-02-22T14:42:40.221Z,3.6
2016-02-22T14:45:43.151Z,3.6
2016-02-22T14:48:53.773Z,3.5
2016-02-22T14:52:06.592Z,3.4
2016-02-22T14:55:17.836Z,3.4
2016-02-22T14:58:35.547Z,3.4
2016-02-22T15:01:43.602Z,3.3
2016-02-22T15:04:46.610Z,3.3
2016-02-22T15:07:56.336Z,3.3
2016-02-22T15:11:06.800Z,3.3
2016-02-22T15:14:16.840Z,3.3
2016-02-22T15:17:28.975Z,3.2
2016-02-22T15:20:40.628Z,3.2
2016-02-22T15:23:53.417Z,3.2
2016-02-22T15:27:06.242Z,3.2
2016-02-22T15:30:18.807Z,3.2
2016-02-22T15:33:36.533Z,3.1
2016-02-22T15:36:44.509Z,3.1
2016-02-22T15:39:47.345Z,3
2016-02-22T15:43:00.102Z,3
2016-02-22T15:46:10.158Z,3
2016-02-22T15:49:22.980Z,2.9
2016-02-22T15:52:40.832Z,2.9
2016-02-22T15:55:43.715Z,2.9
2016-02-22T15:58:56.582Z,2.9
2016-02-22T16:02:09.281Z,2.9
2016-02-22T16:05:22.216Z,2.9
2016-02-22T16:08:37.631Z,2.8
2016-02-22T16:11:40.467Z,2.8
2016-02-22T16:14:53.053Z,2.8
2016-02-22T16:18:03.014Z,2.8
2016-02-22T16:21:12.478Z,2.8
2016-02-22T16:24:22.440Z,2.8
2016-02-22T16:27:39.603Z,2.8
2016-02-22T16:30:42.580Z,2.8
2016-02-22T16:33:54.230Z,2.8
2016-02-22T16:37:05.846Z,2.8
2016-02-22T16:40:16.623Z,2.8
2016-02-22T16:43:36.537Z,2.8
2016-02-22T16:46:44.389Z,2.8
2016-02-22T16:49:47.179Z,2.8
2016-02-22T16:52:59.421Z,2.8
2016-02-22T16:56:12.241Z,2.8
2016-02-22T16:59:25.003Z,2.8
2016-02-22T17:02:42.511Z,2.8
2016-02-22T17:05:45.441Z,2.8
2016-02-22T17:08:56.042Z,2.8
2016-02-22T17:12:07.113Z,2.8
2016-02-22T17:15:16.589Z,2.8
2016-02-22T17:18:26.257Z,2.8
2016-02-22T17:21:42.530Z,2.8
2016-02-22T17:24:45.476Z,2.8
2016-02-22T17:27:56.608Z,2.8
2016-02-22T17:31:08.398Z,2.8
2016-02-22T17:34:21.143Z,2.8
2016-02-22T17:37:38.917Z,2.8
2016-02-22T17:40:41.815Z,2.8
2016-02-22T17:43:51.824Z,2.8
2016-02-22T17:47:04.520Z,2.8
2016-02-22T17:50:17.371Z,2.8
2016-02-22T17:53:26.834Z,2.8
2016-02-22T17:56:44.593Z,2.8
2016-02-22T17:59:47.430Z,2.8
2016-02-22T18:02:57.719Z,2.8
2016-02-22T18:06:10.477Z,2.8
2016-02-22T18:09:23.050Z,2.8
2016-02-22T18:12:39.777Z,2.8
2016-02-22T18:15:43.676Z,2.8
2016-02-22T18:18:55.246Z,2.8
2016-02-22T18:22:06.551Z,2.8
2016-02-22T18:25:19.137Z,2.8
2016-02-22T18:28:36.789Z,2.8
2016-02-22T18:31:44.750Z,2.8
2016-02-22T18:34:47.617Z,2.8
2016-02-22T18:37:58.860Z,2.8
2016-02-22T18:41:11.790Z,2.8
2016-02-22T18:44:24.222Z,2.8
2016-02-22T18:47:39.855Z,2.8
2016-02-22T18:50:42.738Z,2.8
2016-02-22T18:53:55.418Z,2.8
2016-02-22T18:57:05.067Z,2.8
2016-02-22T19:00:16.092Z,2.8
2016-02-22T19:03:33.008Z,2.8
2016-02-22T19:06:41.469Z,2.8
2016-02-22T19:09:54.180Z,2.7
2016-02-22T19:13:05.845Z,2.7
2016-02-22T19:16:18.352Z,2.7
2016-02-22T19:19:29.691Z,2.7
2016-02-22T19:22:42.137Z,2.7
2016-02-22T19:25:54.833Z,2.8
2016-02-22T19:29:07.606Z,2.8
2016-02-22T19:32:20.349Z,2.7
2016-02-22T19:35:37.891Z,2.6
2016-02-22T19:38:40.712Z,2.6
2016-02-22T19:41:50.891Z,2.7
2016-02-22T19:45:01.227Z,2.7
2016-02-22T19:48:13.954Z,2.7
2016-02-22T19:51:26.700Z,2.6
2016-02-22T19:54:41.754Z,2.6
2016-02-22T19:57:44.638Z,2.6
2016-02-22T20:00:56.567Z,2.6
2016-02-22T20:04:09.075Z,2.6
2016-02-22T20:07:18.928Z,2.6
2016-02-22T20:10:36.532Z,2.6
2016-02-22T20:13:44.279Z,2.6
2016-02-22T20:16:47.147Z,2.6
2016-02-22T20:19:59.796Z,2.5
2016-02-22T20:23:12.351Z,2.5
2016-02-22T20:26:24.859Z,2.5
2016-02-22T20:29:42.713Z,2.5
2016-02-22T20:32:45.549Z,2.5
2016-02-22T20:35:56.228Z,2.5
2016-02-22T20:39:09.127Z,2.5
2016-02-22T20:42:21.792Z,2.5
2016-02-22T20:45:39.537Z,2.5
2016-02-22T20:48:42.232Z,2.5
2016-02-22T20:51:55.021Z,2.5
2016-02-22T20:55:07.170Z,2.4
2016-02-22T20:58:17.320Z,2.5
2016-02-22T21:01:27.359Z,2.5
2016-02-22T21:04:44.931Z,2.4
2016-02-22T21:07:47.780Z,2.4
2016-02-22T21:11:00.648Z,2.4
2016-02-22T21:14:12.329Z,2.4
2016-02-22T21:17:22.149Z,2.4
2016-02-22T21:20:39.831Z,2.4
2016-02-22T21:23:42.606Z,2.4
2016-02-22T21:26:53.223Z,2.4
2016-02-22T21:30:05.793Z,2.4
2016-02-22T21:33:16.098Z,2.4
2016-02-22T21:36:32.421Z,2.4
2016-02-22T21:39:40.789Z,2.3
2016-02-22T21:42:53.485Z,2.3
2016-02-22T21:46:06.477Z,2.3
2016-02-22T21:49:17.704Z,2.3
2016-02-22T21:52:30.246Z,2.3
2016-02-22T21:55:42.722Z,2.3
2016-02-22T21:58:56.121Z,2.3
2016-02-22T22:02:08.942Z,2.3
2016-02-22T22:05:21.434Z,2.3
2016-02-22T22:08:38.991Z,2.2
2016-02-22T22:11:41.765Z,2.2
2016-02-22T22:14:52.477Z,2.3
2016-02-22T22:18:05.141Z,2.3
2016-02-22T22:21:17.794Z,2.3
2016-02-22T22:24:35.538Z,2.3
2016-02-22T22:27:43.422Z,2.4
2016-02-22T22:30:46.242Z,2.4
2016-02-22T22:33:56.375Z,2.4
2016-02-22T22:37:08.399Z,2.4
2016-02-22T22:40:19.048Z,2.5
2016-02-22T22:43:36.606Z,2.5
2016-02-22T22:46:44.378Z,2.5
2016-02-22T22:49:47.184Z,2.6
2016-02-22T22:52:58.255Z,2.6
2016-02-22T22:56:10.700Z,2.5
2016-02-22T22:59:23.052Z,2.6
2016-02-22T23:02:40.704Z,2.6
2016-02-22T23:05:43.508Z,2.6
2016-02-22T23:08:56.173Z,2.6
2016-02-22T23:12:06.774Z,2.6
2016-02-22T23:15:16.689Z,2.6
2016-02-22T23:18:29.478Z,2.6
2016-02-22T23:21:42.036Z,2.6
2016-02-22T23:24:54.638Z,2.7
2016-02-22T23:28:03.630Z,2.7
2016-02-22T23:31:16.450Z,2.7
2016-02-22T23:34:26.021Z,2.7
2016-02-22T23:37:43.641Z,2.7
2016-02-22T23:40:46.509Z,2.7
2016-02-22T23:43:59.204Z,2.7
2016-02-22T23:47:08.884Z,2.7
2016-02-22T23:50:20.720Z,2.7
2016-02-22T23:53:36.700Z,2.7
2016-02-22T23:56:44.427Z,2.7
2016-02-22T23:59:47.247Z,2.7
